Time;durP1;ratioP1;P1;durP2;ratioP2;P2;SDS_P1;SDS_P2;PMS_P1;PMS_P2;Temp;Humidity;BMP_temperature;BMP_pressure;BME280_temperature;BME280_humidity;BME280_pressure;Samples;Min_cycle;Max_cycle;Signal;HPM_P1;HPM_P2
2023/05/27 00:03:39;;;;;;;5.70;2.80;;;;;;;9.35;62.17;100759.14;220634;1254;140878;-71
2023/05/27 00:08:43;;;;;;;12.80;4.40;;;;;;;9.15;62.57;100767.27;220102;1254;139851;-69
2023/05/27 00:13:48;;;;;;;8.70;3.10;;;;;;;9.03;63.03;100770.51;220340;1254;141679;-68
2023/05/27 00:18:53;;;;;;;9.90;5.00;;;;;;;8.94;63.01;100766.98;219261;1254;138965;-70
2023/05/27 00:23:57;;;;;;;9.40;4.10;;;;;;;8.87;63.36;100766.77;218383;1255;141666;-70
2023/05/27 00:29:00;;;;;;;12.10;3.90;;;;;;;8.79;63.44;100766.41;218028;1256;139803;-70
2023/05/27 00:34:03;;;;;;;8.70;4.00;;;;;;;8.72;63.93;100759.70;218226;1259;139743;-70
2023/05/27 00:39:06;;;;;;;11.90;5.30;;;;;;;8.62;64.18;100758.88;218404;1259;139440;-69
2023/05/27 00:44:10;;;;;;;9.40;3.50;;;;;;;8.52;64.35;100758.21;218073;1254;139869;-70
2023/05/27 00:49:14;;;;;;;11.00;3.60;;;;;;;8.40;64.34;100758.19;218002;1254;139986;-69
2023/05/27 00:54:18;;;;;;;8.80;4.90;;;;;;;8.28;64.84;100753.81;218090;1254;139709;-68
2023/05/27 00:59:21;;;;;;;12.20;6.10;;;;;;;8.17;64.73;100750.79;218707;1254;140506;-69
2023/05/27 01:04:26;;;;;;;7.60;4.30;;;;;;;8.03;64.94;100754.34;218685;1254;139791;-70
2023/05/27 01:09:41;;;;;;;6.50;3.60;;;;;;;7.93;65.42;100761.50;218012;1254;139323;-68
2023/05/27 01:14:49;;;;;;;5.40;3.10;;;;;;;7.81;65.56;100768.84;219112;1254;139106;-69
2023/05/27 01:19:54;;;;;;;9.70;3.80;;;;;;;7.69;65.84;100774.40;218921;1254;140247;-69
2023/05/27 01:24:58;;;;;;;9.60;4.10;;;;;;;7.63;66.03;100776.40;218309;1254;139443;-68
2023/05/27 01:30:03;;;;;;;4.60;2.50;;;;;;;7.58;66.27;100782.65;218533;1254;139416;-68
2023/05/27 01:35:23;;;;;;;15.80;3.90;;;;;;;7.52;66.48;100778.42;218000;1257;139427;-69
2023/05/27 01:40:28;;;;;;;9.80;3.70;;;;;;;7.46;66.72;100781.40;218810;1257;140379;-68
2023/05/27 01:45:33;;;;;;;8.00;2.50;;;;;;;7.39;67.38;100781.16;217951;1254;139383;-66
2023/05/27 01:50:37;;;;;;;9.80;5.00;;;;;;;7.32;67.13;100781.85;218861;1254;139625;-68
2023/05/27 01:55:40;;;;;;;12.10;5.00;;;;;;;7.25;67.35;100788.21;220582;1254;139652;-69
2023/05/27 02:00:44;;;;;;;6.10;3.40;;;;;;;7.19;67.71;100788.06;220864;1254;141479;-69
2023/05/27 02:05:47;;;;;;;9.00;3.80;;;;;;;7.12;67.14;100781.16;220987;1254;140069;-68
2023/05/27 02:10:51;;;;;;;7.60;3.90;;;;;;;7.01;67.31;100777.47;220903;1254;139550;-70
2023/05/27 02:15:54;;;;;;;9.40;3.90;;;;;;;6.88;66.99;100779.02;219579;1254;140529;-69
2023/05/27 02:20:58;;;;;;;8.80;3.90;;;;;;;6.71;66.94;100775.70;219839;1256;140573;-70
2023/05/27 02:26:02;;;;;;;7.90;3.10;;;;;;;6.54;67.31;100775.83;218577;1254;141077;-70
2023/05/27 02:31:09;;;;;;;9.40;3.80;;;;;;;6.45;67.58;100783.90;218760;1254;140023;-68
2023/05/27 02:36:13;;;;;;;;;;;;;;;6.39;68.27;100784.08;217784;1254;139800;-69
2023/05/27 02:41:18;;;;;;;7.10;3.90;;;;;;;6.37;68.91;100792.77;219545;1254;126039;-69
2023/05/27 02:46:20;;;;;;;9.00;3.70;;;;;;;6.44;69.14;100796.06;219182;1254;141696;-70
2023/05/27 02:51:25;;;;;;;5.50;3.70;;;;;;;6.41;68.80;100797.23;218367;1258;140578;-69
2023/05/27 02:56:28;;;;;;;4.00;1.90;;;;;;;6.29;68.32;100798.74;218900;1254;140122;-70
2023/05/27 03:01:32;;;;;;;6.60;3.00;;;;;;;6.11;68.53;100802.91;218083;1254;139564;-69
2023/05/27 03:06:35;;;;;;;5.30;2.40;;;;;;;6.00;69.01;100802.16;218437;1254;139882;-70
2023/05/27 03:11:39;;;;;;;7.90;2.80;;;;;;;5.98;69.12;100809.29;217946;1254;140112;-68
2023/05/27 03:16:42;;;;;;;4.90;2.60;;;;;;;5.97;69.57;100811.92;218271;1254;140316;-69
2023/05/27 03:21:45;;;;;;;7.30;2.90;;;;;;;6.06;70.01;100814.73;218158;1254;140200;-68
2023/05/27 03:26:51;;;;;;;6.70;2.50;;;;;;;6.19;70.19;100814.23;217920;1254;139726;-68
2023/05/27 03:31:55;;;;;;;5.20;2.40;;;;;;;6.30;70.53;100815.88;218197;1254;139405;-71
2023/05/27 03:36:59;;;;;;;6.00;2.90;;;;;;;6.45;70.27;100817.30;218419;1254;140573;-69
2023/05/27 03:42:03;;;;;;;3.80;2.10;;;;;;;6.58;70.42;100820.11;218013;1257;139688;-69
2023/05/27 03:47:08;;;;;;;5.70;2.10;;;;;;;6.73;70.59;100822.64;219173;1253;139775;-69
2023/05/27 03:52:11;;;;;;;6.80;2.60;;;;;;;6.96;71.16;100825.52;218148;1253;140210;-68
2023/05/27 03:57:14;;;;;;;5.40;2.50;;;;;;;7.31;70.81;100826.19;219597;1254;139408;-69
2023/05/27 04:02:17;;;;;;;11.50;5.00;;;;;;;7.59;70.62;100829.80;218535;1259;140456;-68
2023/05/27 04:07:20;;;;;;;6.20;2.80;;;;;;;7.83;70.41;100826.97;220692;1254;140714;-70
2023/05/27 04:12:23;;;;;;;4.10;2.50;;;;;;;8.01;70.27;100834.08;220681;1254;140636;-70
2023/05/27 04:17:26;;;;;;;5.60;2.50;;;;;;;8.30;69.82;100843.92;220466;1253;140979;-70
2023/05/27 04:22:28;;;;;;;5.60;3.40;;;;;;;9.13;68.96;100839.16;220418;1253;140650;-71
2023/05/27 04:27:30;;;;;;;4.10;2.30;;;;;;;10.09;68.07;100838.45;217954;1256;140163;-71
2023/05/27 04:32:37;;;;;;;12.30;4.40;;;;;;;10.50;67.50;100839.51;219496;1259;139986;-70
2023/05/27 04:37:44;;;;;;;4.60;2.40;;;;;;;11.94;65.88;100843.93;218188;1259;141799;-69
2023/05/27 04:42:48;;;;;;;7.00;2.80;;;;;;;12.65;64.87;100846.70;218549;1256;140084;-68
2023/05/27 04:47:52;;;;;;;9.40;2.90;;;;;;;13.10;63.49;100850.02;218818;1254;141211;-69
2023/05/27 04:52:55;;;;;;;6.90;3.20;;;;;;;13.70;62.50;100857.90;218531;1254;139717;-72
2023/05/27 04:58:02;;;;;;;8.30;3.60;;;;;;;13.64;61.61;100861.29;218158;1254;140160;-68
2023/05/27 05:03:06;;;;;;;6.90;3.20;;;;;;;14.60;60.12;100858.08;218031;1254;139493;-68
2023/05/27 05:08:11;;;;;;;9.80;3.20;;;;;;;17.44;57.10;100851.86;218279;1254;139570;-69
2023/05/27 05:13:16;;;;;;;6.20;2.80;;;;;;;18.85;55.09;100856.48;218337;1254;140216;-69
2023/05/27 05:18:19;;;;;;;8.30;3.60;;;;;;;20.47;52.45;100862.30;218601;1254;140003;-67
2023/05/27 05:23:23;;;;;;;6.10;2.80;;;;;;;23.07;49.54;100858.67;218616;1255;141658;-65
2023/05/27 05:28:27;;;;;;;7.30;3.00;;;;;;;25.23;46.22;100860.23;217808;1254;139275;-69
2023/05/27 05:33:30;;;;;;;8.40;3.20;;;;;;;26.80;43.16;100866.42;218324;1254;139973;-70
2023/05/27 05:38:33;;;;;;;4.20;2.90;;;;;;;27.84;40.58;100867.32;217845;1258;139143;-67
2023/05/27 05:43:38;;;;;;;3.30;2.30;;;;;;;28.76;38.92;100866.99;219064;1254;139807;-68
2023/05/27 05:48:41;;;;;;;3.60;2.20;;;;;;;29.78;37.14;100875.00;218371;1254;139303;-65
2023/05/27 05:53:45;;;;;;;4.30;2.60;;;;;;;30.51;35.40;100876.52;217761;1257;140390;-66
2023/05/27 05:58:48;;;;;;;4.40;2.20;;;;;;;30.85;33.87;100881.60;220721;1254;140864;-70
2023/05/27 06:03:51;;;;;;;13.30;1.90;;;;;;;31.10;33.09;100883.80;220842;1254;140464;-71
2023/05/27 06:08:56;;;;;;;6.60;2.10;;;;;;;31.46;32.53;100885.92;219776;1255;140266;-71
2023/05/27 06:13:59;;;;;;;2.90;2.00;;;;;;;31.85;31.62;100891.27;220776;1255;141160;-73
2023/05/27 06:19:07;;;;;;;;;;;;;;;31.76;31.05;100897.89;218205;1254;139261;-69
2023/05/27 06:24:12;;;;;;;3.70;2.00;;;;;;;31.56;30.62;100890.17;219257;1254;127540;-69
2023/05/27 06:29:18;;;;;;;5.00;1.30;;;;;;;31.38;30.47;100890.09;218550;1253;139617;-69
2023/05/27 06:34:22;;;;;;;1.70;1.50;;;;;;;31.32;30.20;100895.04;218995;1254;140168;-69
2023/05/27 06:39:25;;;;;;;5.00;1.60;;;;;;;31.24;29.89;100895.72;218194;1257;140412;-71
2023/05/27 06:44:29;;;;;;;4.70;1.30;;;;;;;30.59;29.69;100893.39;218244;1257;140519;-68
2023/05/27 06:49:33;;;;;;;2.30;1.70;;;;;;;30.12;29.54;100892.58;218244;1257;139005;-69
2023/05/27 06:54:37;;;;;;;3.90;1.70;;;;;;;29.85;29.52;100889.23;217849;1257;140269;-68
2023/05/27 06:59:40;;;;;;;;;;;;;;;29.65;29.22;100890.83;218044;1254;139862;-68
2023/05/27 07:04:44;;;;;;;4.30;1.70;;;;;;;29.62;29.44;100884.27;218522;1255;125629;-68
2023/05/27 07:09:47;;;;;;;2.50;1.50;;;;;;;30.03;29.50;100880.42;218464;1256;139431;-67
2023/05/27 07:14:51;;;;;;;3.40;2.10;;;;;;;30.44;29.19;100882.34;217890;1254;140574;-67
2023/05/27 07:19:55;;;;;;;1.10;1.00;;;;;;;30.18;28.88;100887.08;217879;1257;139473;-67
2023/05/27 07:24:58;;;;;;;1.70;1.30;;;;;;;29.51;28.89;100892.16;218602;1256;140201;-68
2023/05/27 07:30:02;;;;;;;2.30;1.60;;;;;;;28.82;29.41;100888.92;218743;1256;139580;-68
2023/05/27 07:35:06;;;;;;;3.60;1.50;;;;;;;28.16;30.03;100884.81;218663;1256;139159;-68
2023/05/27 07:40:09;;;;;;;2.50;1.50;;;;;;;27.42;30.37;100878.38;220069;1254;139701;-69
2023/05/27 07:45:11;;;;;;;2.20;1.70;;;;;;;26.91;30.38;100870.25;219172;1255;139589;-69
2023/05/27 07:50:14;;;;;;;5.30;1.50;;;;;;;26.31;30.95;100866.25;220936;1253;139572;-70
2023/05/27 07:55:18;;;;;;;2.90;1.30;;;;;;;25.76;31.26;100863.70;220905;1254;138992;-71
2023/05/27 08:00:21;;;;;;;6.40;1.60;;;;;;;25.30;31.80;100869.95;218594;1254;139788;-69
2023/05/27 08:05:24;;;;;;;5.70;2.00;;;;;;;24.94;32.10;100865.22;220343;1256;139988;-70
2023/05/27 08:10:33;;;;;;;4.80;2.10;;;;;;;24.76;32.49;100866.49;220563;1254;139392;-69
2023/05/27 08:15:37;;;;;;;6.70;1.90;;;;;;;24.38;32.69;100864.06;219043;1254;141176;-69
2023/05/27 08:20:41;;;;;;;4.00;2.00;;;;;;;24.03;32.87;100861.64;218812;1255;140801;-68
2023/05/27 08:25:45;;;;;;;4.00;1.80;;;;;;;23.90;33.18;100861.14;218780;1254;140409;-68
2023/05/27 08:30:49;;;;;;;6.20;1.80;;;;;;;23.88;33.57;100858.77;219150;1254;139188;-69
2023/05/27 08:35:53;;;;;;;3.20;2.00;;;;;;;23.74;33.53;100854.67;219114;1254;139294;-69
2023/05/27 08:40:58;;;;;;;6.40;2.20;;;;;;;23.59;34.45;100853.91;218338;1254;139969;-68
2023/05/27 08:46:02;;;;;;;2.40;1.60;;;;;;;23.42;34.15;100856.20;218082;1254;139625;-70
2023/05/27 08:51:06;;;;;;;1.90;1.60;;;;;;;23.46;34.03;100847.67;218165;1254;139690;-69
2023/05/27 08:56:14;;;;;;;8.20;2.10;;;;;;;23.31;33.80;100842.04;218482;1259;140422;-70
2023/05/27 09:01:23;;;;;;;8.10;2.20;;;;;;;23.17;34.31;100837.45;218807;1254;140049;-70
2023/05/27 09:06:26;;;;;;;4.80;1.50;;;;;;;23.14;34.14;100841.06;218026;1257;139712;-71
2023/05/27 09:11:34;;;;;;;3.00;1.60;;;;;;;23.02;34.07;100836.85;218114;1257;141430;-71
2023/05/27 09:16:43;;;;;;;5.60;1.80;;;;;;;22.97;34.93;100836.09;218050;1254;140695;-71
2023/05/27 09:21:56;;;;;;;3.90;1.90;;;;;;;23.04;34.54;100837.80;219729;1254;140525;-72
2023/05/27 09:27:01;;;;;;;5.50;2.20;;;;;;;22.92;33.70;100833.02;218736;1254;140388;-73
2023/05/27 09:32:06;;;;;;;5.20;1.70;;;;;;;22.93;34.41;100833.88;217992;1258;140283;-71
2023/05/27 09:37:17;;;;;;;3.40;1.60;;;;;;;22.89;33.93;100834.80;218272;1254;139832;-72
2023/05/27 09:42:20;;;;;;;6.20;1.90;;;;;;;22.82;33.89;100827.85;218323;1258;141610;-67
2023/05/27 09:47:24;;;;;;;3.30;1.80;;;;;;;22.68;33.49;100826.52;220936;1254;139336;-69
2023/05/27 09:52:28;;;;;;;5.90;1.40;;;;;;;22.67;33.86;100833.92;220854;1254;139173;-71
2023/05/27 09:57:30;;;;;;;3.50;1.40;;;;;;;22.79;32.35;100829.95;220046;1255;527649;-71
2023/05/27 10:02:35;;;;;;;4.30;2.10;;;;;;;22.70;32.76;100834.71;218498;1254;140066;-70
2023/05/27 10:07:39;;;;;;;4.60;2.10;;;;;;;22.70;32.84;100832.86;220130;1254;140100;-71
2023/05/27 10:13:03;;;;;;;1.80;1.30;;;;;;;22.75;33.23;100826.11;219529;1256;140211;-70
2023/05/27 10:18:09;;;;;;;10.90;2.40;;;;;;;22.70;33.34;100817.67;218433;1254;139913;-68
2023/05/27 10:23:17;;;;;;;2.30;1.60;;;;;;;22.75;33.74;100816.77;219384;1254;141089;-70
2023/05/27 10:28:36;;;;;;;8.60;1.50;;;;;;;22.80;33.83;100811.35;218126;1254;139416;-69
2023/05/27 10:33:50;;;;;;;3.90;1.30;;;;;;;22.75;33.07;100810.95;218908;1258;139039;-68
2023/05/27 10:39:18;;;;;;;7.70;1.60;;;;;;;22.72;32.76;100801.24;218141;1255;139675;-68
2023/05/27 10:44:36;;;;;;;4.20;1.70;;;;;;;22.67;32.65;100799.67;218306;1257;140116;-67
2023/05/27 10:49:40;;;;;;;1.80;0.90;;;;;;;22.71;32.70;100794.25;217975;1254;139678;-70
2023/05/27 10:54:52;;;;;;;4.90;1.60;;;;;;;22.75;32.69;100800.95;218134;1254;139287;-67
2023/05/27 11:00:00;;;;;;;2.50;1.50;;;;;;;22.80;33.07;100804.00;218232;1257;139321;-70
2023/05/27 11:05:10;;;;;;;2.30;1.90;;;;;;;22.38;33.02;100800.91;218000;1254;139501;-70
2023/05/27 11:10:13;;;;;;;5.50;1.80;;;;;;;22.38;33.10;100797.97;218509;1254;140066;-70
2023/05/27 11:15:18;;;;;;;1.90;1.40;;;;;;;22.15;33.23;100803.41;218400;1254;139084;-70
2023/05/27 11:20:22;;;;;;;2.40;1.90;;;;;;;21.46;33.49;100803.58;218911;1256;140755;-70
2023/05/27 11:25:25;;;;;;;3.80;1.30;;;;;;;21.17;34.00;100790.39;218304;1255;140600;-71
2023/05/27 11:30:29;;;;;;;4.40;1.70;;;;;;;21.39;34.06;100785.41;219522;1255;140213;-72
2023/05/27 11:35:34;;;;;;;2.70;1.30;;;;;;;21.65;34.17;100778.13;219887;1257;140654;-72
2023/05/27 11:40:38;;;;;;;4.60;1.60;;;;;;;21.43;33.44;100781.21;218718;1255;230286;-73
2023/05/27 11:45:42;;;;;;;5.40;1.60;;;;;;;21.32;33.64;100782.10;219409;1254;140091;-72
2023/05/27 11:50:44;;;;;;;6.50;1.50;;;;;;;21.44;33.55;100769.69;220627;1255;139117;-71
2023/05/27 11:55:48;;;;;;;1.50;1.20;;;;;;;21.42;33.30;100764.34;219813;1253;138920;-72
2023/05/27 12:00:52;;;;;;;1.20;1.10;;;;;;;21.36;33.33;100756.96;220332;1253;140332;-71
2023/05/27 12:05:56;;;;;;;2.30;1.40;;;;;;;21.52;33.65;100763.84;218766;1257;139361;-70
2023/05/27 12:11:01;;;;;;;37.70;3.90;;;;;;;21.60;32.92;100764.60;218465;1255;139937;-69
2023/05/27 12:16:05;;;;;;;7.40;1.60;;;;;;;21.54;32.60;100753.95;219225;1257;140077;-71
2023/05/27 12:21:10;;;;;;;1.50;1.30;;;;;;;21.41;32.59;100755.78;218097;1254;139152;-69
2023/05/27 12:26:13;;;;;;;2.50;1.20;;;;;;;21.34;32.47;100754.54;218836;1254;139236;-71
2023/05/27 12:31:18;;;;;;;2.10;1.50;;;;;;;21.44;32.72;100747.61;219128;1254;140170;-71
2023/05/27 12:36:23;;;;;;;1.20;0.80;;;;;;;21.46;32.42;100757.09;218072;1254;139228;-69
2023/05/27 12:41:29;;;;;;;1.70;1.30;;;;;;;21.41;32.10;100746.17;218663;1254;141486;-69
2023/05/27 12:46:37;;;;;;;3.20;1.60;;;;;;;21.38;32.50;100743.01;218345;1253;139025;-68
2023/05/27 12:51:39;;;;;;;3.60;1.20;;;;;;;21.37;31.98;100740.31;218443;1254;140275;-71
2023/05/27 12:56:42;;;;;;;3.40;1.20;;;;;;;21.36;31.82;100734.17;219315;1256;140014;-71
2023/05/27 13:01:48;;;;;;;4.70;1.40;;;;;;;21.23;31.73;100730.02;219412;1254;139895;-73
2023/05/27 13:06:51;;;;;;;1.30;1.00;;;;;;;21.18;32.07;100720.00;218273;1255;226109;-69
2023/05/27 13:11:56;;;;;;;2.20;1.30;;;;;;;21.14;31.95;100718.11;218434;1254;140026;-71
2023/05/27 13:17:03;;;;;;;3.10;1.50;;;;;;;21.15;32.05;100718.64;218807;1256;140129;-69
2023/05/27 13:22:05;;;;;;;4.10;1.50;;;;;;;21.10;31.61;100713.38;218358;1254;139084;-72
2023/05/27 13:27:09;;;;;;;8.80;1.80;;;;;;;21.12;31.39;100712.05;219232;1257;139018;-70
2023/05/27 13:32:15;;;;;;;3.20;1.50;;;;;;;21.16;31.11;100704.87;219833;1257;140338;-70
2023/05/27 13:37:18;;;;;;;2.40;1.50;;;;;;;21.23;30.74;100703.02;218486;1257;140035;-71
2023/05/27 13:42:20;;;;;;;1.60;1.40;;;;;;;21.17;30.65;100705.56;220539;1256;139667;-70
2023/05/27 13:47:23;;;;;;;2.30;1.50;;;;;;;21.17;30.22;100703.17;217977;1257;139895;-70
2023/05/27 13:52:26;;;;;;;0.90;0.80;;;;;;;21.18;29.98;100701.66;219770;1255;140439;-70
2023/05/27 13:57:30;;;;;;;1.30;1.10;;;;;;;21.16;29.99;100694.52;218494;1257;138910;-71
2023/05/27 14:02:35;;;;;;;1.90;1.00;;;;;;;21.13;29.82;100687.05;218991;1256;140721;-71
2023/05/27 14:07:43;;;;;;;1.20;1.10;;;;;;;21.05;29.54;100689.12;218100;1256;140210;-73
2023/05/27 14:12:47;;;;;;;1.80;1.30;;;;;;;20.85;29.04;100685.55;217722;1257;139688;-72
2023/05/27 14:17:50;;;;;;;2.20;1.20;;;;;;;20.80;29.44;100678.91;218861;1257;139973;-67
2023/05/27 14:22:54;;;;;;;1.80;1.40;;;;;;;20.79;29.37;100678.59;218786;1255;140562;-68
2023/05/27 14:28:03;;;;;;;1.10;0.90;;;;;;;20.75;29.14;100672.23;217861;1255;140367;-70
2023/05/27 14:33:07;;;;;;;3.30;1.60;;;;;;;20.81;29.04;100661.39;218457;1258;205462;-68
2023/05/27 14:38:12;;;;;;;1.80;1.50;;;;;;;20.82;28.96;100659.71;218186;1255;139596;-68
2023/05/27 14:43:16;;;;;;;7.80;1.60;;;;;;;20.82;28.71;100655.48;218775;1254;140012;-72
2023/05/27 14:48:19;;;;;;;2.00;1.80;;;;;;;20.80;28.49;100653.54;218483;1257;139090;-71
2023/05/27 14:53:21;;;;;;;1.50;1.40;;;;;;;20.65;28.16;100659.27;218015;1257;139456;-69
2023/05/27 14:58:24;;;;;;;5.80;1.30;;;;;;;20.43;28.37;100650.55;217666;1255;139160;-68
2023/05/27 15:03:29;;;;;;;2.10;1.20;;;;;;;20.43;28.85;100646.17;217912;1254;138922;-73
2023/05/27 15:08:33;;;;;;;3.30;1.70;;;;;;;20.45;28.75;100644.26;219350;1259;140968;-68
2023/05/27 15:13:40;;;;;;;4.80;1.30;;;;;;;20.36;28.70;100636.59;217892;1259;139131;-67
2023/05/27 15:18:59;;;;;;;7.50;1.80;;;;;;;20.22;28.44;100632.89;219006;1253;139687;-72
2023/05/27 15:24:25;;;;;;;4.40;1.20;;;;;;;20.13;28.51;100627.30;218396;1257;141093;-67
2023/05/27 15:29:55;;;;;;;1.60;1.50;;;;;;;20.06;28.81;100616.70;219800;1257;139083;-74
2023/05/27 15:35:13;;;;;;;2.40;1.30;;;;;;;20.03;28.97;100616.98;220938;1258;140034;-72
2023/05/27 15:40:49;;;;;;;1.60;1.50;;;;;;;19.99;28.79;100621.12;220523;1257;140250;-73
2023/05/27 15:46:29;;;;;;;14.00;1.70;;;;;;;19.94;28.82;100614.14;220790;1258;138634;-76
2023/05/27 15:51:58;;;;;;;1.50;1.40;;;;;;;19.82;28.91;100615.16;219839;1253;140333;-71
2023/05/27 15:57:19;;;;;;;7.30;2.20;;;;;;;19.71;28.92;100616.10;220429;1254;139583;-72
2023/05/27 16:02:22;;;;;;;2.90;1.50;;;;;;;19.73;28.89;100616.42;220053;1254;139073;-71
2023/05/27 16:07:25;;;;;;;6.30;1.90;;;;;;;19.71;28.72;100612.48;219588;1254;139380;-71
2023/05/27 16:12:27;;;;;;;3.10;1.30;;;;;;;19.68;28.91;100608.27;218162;1254;140234;-69
2023/05/27 16:17:33;;;;;;;1.70;1.00;;;;;;;19.59;29.03;100605.09;219169;1259;141399;-70
2023/05/27 16:22:43;;;;;;;1.30;1.00;;;;;;;19.50;29.28;100603.73;218625;1255;140080;-70
2023/05/27 16:27:50;;;;;;;1.10;1.10;;;;;;;19.36;29.60;100599.77;217709;1257;140282;-72
2023/05/27 16:32:53;;;;;;;2.50;1.10;;;;;;;19.23;29.33;100597.42;218975;1255;140278;-72
2023/05/27 16:37:58;;;;;;;2.30;1.20;;;;;;;19.11;29.59;100594.83;218106;1259;139588;-74
2023/05/27 16:43:11;;;;;;;3.20;1.70;;;;;;;18.98;29.60;100591.95;217906;1255;139377;-73
2023/05/27 16:48:39;;;;;;;1.80;1.30;;;;;;;18.87;29.97;100588.71;218096;1259;140295;-78
2023/05/27 16:53:42;;;;;;;1.60;1.50;;;;;;;18.81;30.20;100588.48;218309;1254;139249;-70
2023/05/27 16:58:45;;;;;;;13.20;1.90;;;;;;;18.67;30.13;100587.33;218371;1258;141069;-71
2023/05/27 17:03:48;;;;;;;2.70;0.90;;;;;;;18.51;29.97;100583.32;218014;1257;140354;-69
2023/05/27 17:08:52;;;;;;;1.30;1.10;;;;;;;18.33;30.14;100579.92;217969;1254;141281;-70
2023/05/27 17:13:57;;;;;;;1.00;1.00;;;;;;;18.18;30.49;100576.79;218358;1258;140096;-68
2023/05/27 17:19:01;;;;;;;8.40;1.90;;;;;;;18.09;30.70;100576.23;217934;1258;139587;-67
2023/05/27 17:24:04;;;;;;;1.60;1.10;;;;;;;17.99;30.96;100573.76;218608;1259;141543;-68
2023/05/27 17:29:08;;;;;;;2.00;0.80;;;;;;;17.92;31.28;100570.75;220389;1254;140009;-69
2023/05/27 17:34:12;;;;;;;5.10;1.50;;;;;;;17.84;31.35;100569.58;220783;1254;140100;-69
2023/05/27 17:39:15;;;;;;;3.90;1.40;;;;;;;17.74;31.27;100572.87;219867;1254;141107;-68
2023/05/27 17:44:17;;;;;;;4.40;1.50;;;;;;;17.65;32.68;100571.36;220676;1253;139226;-68
2023/05/27 17:49:20;;;;;;;1.70;1.20;;;;;;;17.53;33.15;100573.41;220493;1254;142657;-69
2023/05/27 17:54:24;;;;;;;3.30;1.50;;;;;;;17.35;35.35;100572.87;220029;1254;139993;-69
2023/05/27 17:59:27;;;;;;;3.00;2.00;;;;;;;17.13;36.40;100570.34;219786;1254;141077;-68
2023/05/27 18:04:31;;;;;;;4.60;2.40;;;;;;;16.91;37.27;100570.52;218433;1260;140031;-68
2023/05/27 18:09:34;;;;;;;3.60;2.90;;;;;;;16.67;38.17;100569.92;218094;1254;139232;-76
2023/05/27 18:14:38;;;;;;;3.00;2.70;;;;;;;16.40;38.49;100566.60;218052;1257;139466;-69
2023/05/27 18:19:43;;;;;;;11.60;2.20;;;;;;;16.11;38.97;100564.83;218370;1258;139280;-73
2023/05/27 18:24:48;;;;;;;1.90;1.50;;;;;;;15.85;39.36;100570.45;217729;1258;139344;-71
2023/05/27 18:29:56;;;;;;;3.40;1.20;;;;;;;15.54;39.31;100572.30;219544;1254;139837;-67
2023/05/27 18:34:59;;;;;;;3.80;1.70;;;;;;;15.27;39.94;100573.91;217888;1257;140030;-68
2023/05/27 18:40:14;;;;;;;1.70;1.50;;;;;;;14.96;40.25;100576.80;218847;1257;139852;-68
2023/05/27 18:45:46;;;;;;;2.20;1.90;;;;;;;14.65;41.31;100581.08;217842;1257;138880;-70
2023/05/27 18:50:49;;;;;;;1.70;1.30;;;;;;;14.29;42.81;100590.45;219481;1254;142797;-73
2023/05/27 18:55:53;;;;;;;3.20;1.20;;;;;;;13.96;43.82;100589.67;217808;1257;139015;-72
2023/05/27 19:00:56;;;;;;;1.60;1.50;;;;;;;13.63;44.89;100600.68;218078;1254;140208;-67
2023/05/27 19:05:59;;;;;;;5.10;1.80;;;;;;;13.31;45.53;100601.98;218262;1256;139394;-70
2023/05/27 19:11:04;;;;;;;7.10;2.30;;;;;;;12.99;46.66;100600.40;218248;1254;140523;-69
2023/05/27 19:16:07;;;;;;;2.60;2.10;;;;;;;12.70;47.74;100602.39;218022;1257;139594;-68
2023/05/27 19:21:11;;;;;;;2.10;1.30;;;;;;;12.47;48.14;100604.80;219039;1254;139816;-67
2023/05/27 19:26:13;;;;;;;4.50;2.90;;;;;;;12.30;49.00;100607.56;219919;1254;139489;-68
2023/05/27 19:31:17;;;;;;;5.70;3.30;;;;;;;12.10;49.03;100607.98;219104;1257;139350;-67
2023/05/27 19:36:21;;;;;;;3.60;2.90;;;;;;;11.82;49.56;100611.73;218364;1260;139552;-73
2023/05/27 19:41:24;;;;;;;11.40;5.90;;;;;;;11.55;49.91;100611.67;220328;1256;139237;-68
2023/05/27 19:46:28;;;;;;;24.90;9.80;;;;;;;11.30;50.45;100608.90;220662;1254;139693;-69
2023/05/27 19:51:33;;;;;;;18.70;8.90;;;;;;;11.08;50.83;100616.34;218730;1254;139950;-70
2023/05/27 19:56:38;;;;;;;22.20;10.70;;;;;;;10.92;51.59;100616.88;218580;1254;139944;-66
2023/05/27 20:01:42;;;;;;;18.70;11.60;;;;;;;10.76;51.83;100616.96;218559;1257;140062;-70
2023/05/27 20:06:46;;;;;;;18.80;9.90;;;;;;;10.56;52.38;100621.10;219181;1256;140488;-66
2023/05/27 20:11:48;;;;;;;25.20;8.40;;;;;;;10.35;52.74;100618.89;218108;1257;139743;-65
2023/05/27 20:16:51;;;;;;;24.20;12.40;;;;;;;10.15;53.06;100620.76;217949;1254;139302;-72
2023/05/27 20:21:53;;;;;;;61.50;22.90;;;;;;;9.94;53.53;100621.18;218884;1254;139561;-67
2023/05/27 20:26:56;;;;;;;29.80;15.60;;;;;;;9.76;54.04;100622.08;217940;1257;150804;-72
2023/05/27 20:32:00;;;;;;;13.60;7.60;;;;;;;9.57;54.69;100625.71;217987;1257;139544;-67
2023/05/27 20:37:03;;;;;;;6.60;4.50;;;;;;;9.35;55.24;100628.52;218322;1254;138825;-72
2023/05/27 20:42:06;;;;;;;9.40;3.90;;;;;;;9.21;55.79;100627.92;218049;1258;139177;-66
2023/05/27 20:47:09;;;;;;;22.70;7.20;;;;;;;9.10;56.06;100622.69;218400;1257;138743;-65
2023/05/27 20:52:13;;;;;;;24.90;5.50;;;;;;;8.97;56.63;100623.98;218385;1255;140333;-71
2023/05/27 20:57:16;;;;;;;7.00;4.50;;;;;;;8.88;56.77;100623.27;218377;1256;139214;-69
2023/05/27 21:02:22;;;;;;;12.20;6.30;;;;;;;8.76;57.16;100625.17;218118;1254;140048;-68
2023/05/27 21:07:26;;;;;;;20.50;7.80;;;;;;;8.59;57.43;100623.90;219163;1254;140924;-68
2023/05/27 21:12:30;;;;;;;30.90;10.90;;;;;;;8.47;58.11;100619.69;218295;1255;138993;-72
2023/05/27 21:17:35;;;;;;;14.80;10.50;;;;;;;8.39;58.20;100617.08;217917;1257;140526;-73
2023/05/27 21:22:38;;;;;;;24.10;9.00;;;;;;;8.29;58.42;100611.37;219154;1253;139870;-70
2023/05/27 21:27:41;;;;;;;32.50;16.80;;;;;;;8.21;58.93;100609.42;218649;1253;139870;-73
2023/05/27 21:32:45;;;;;;;21.50;12.80;;;;;;;8.11;59.08;100605.86;220899;1254;139886;-69
2023/05/27 21:37:50;;;;;;;22.70;10.80;;;;;;;8.03;59.68;100605.77;220982;1254;142372;-68
2023/05/27 21:42:54;;;;;;;39.20;10.50;;;;;;;7.98;60.09;100609.39;219753;1254;141222;-69
2023/05/27 21:48:03;;;;;;;21.00;12.20;;;;;;;7.88;60.39;100607.99;220540;1254;140460;-73
2023/05/27 21:53:08;;;;;;;46.50;22.50;;;;;;;7.83;60.71;100615.92;220495;1254;139729;-66
2023/05/27 21:58:12;;;;;;;121.90;51.80;;;;;;;7.75;61.10;100613.38;217403;1254;689914;-66
2023/05/27 22:03:16;;;;;;;138.90;59.00;;;;;;;7.66;61.12;100607.45;219974;1253;139422;-66
2023/05/27 22:08:20;;;;;;;96.00;45.30;;;;;;;7.54;61.35;100611.28;218170;1254;139605;-66
2023/05/27 22:13:24;;;;;;;67.70;29.00;;;;;;;7.44;61.37;100605.45;218807;1254;139814;-69
2023/05/27 22:18:28;;;;;;;60.80;29.60;;;;;;;7.32;61.80;100601.00;218024;1254;139450;-70
2023/05/27 22:23:32;;;;;;;65.00;33.30;;;;;;;7.21;61.71;100603.56;217863;1257;140848;-68
2023/05/27 22:28:36;;;;;;;37.80;19.50;;;;;;;7.16;62.85;100606.37;218788;1253;139733;-68
2023/05/27 22:33:40;;;;;;;27.70;14.60;;;;;;;7.07;62.83;100604.02;217904;1257;139413;-69
2023/05/27 22:38:43;;;;;;;19.20;13.10;;;;;;;6.97;63.15;100602.34;218062;1258;139116;-68
2023/05/27 22:43:45;;;;;;;22.80;13.10;;;;;;;6.92;63.67;100603.32;218118;1254;140094;-69
2023/05/27 22:48:48;;;;;;;33.70;14.40;;;;;;;6.86;63.39;100604.73;218280;1254;139996;-68
2023/05/27 22:53:52;;;;;;;37.80;16.30;;;;;;;6.77;63.65;100601.09;218652;1254;139681;-69
2023/05/27 22:58:56;;;;;;;33.10;16.20;;;;;;;6.67;64.07;100599.02;218046;1254;140020;-67
2023/05/27 23:04:00;;;;;;;22.60;13.30;;;;;;;6.58;64.44;100595.38;218683;1257;140708;-67
2023/05/27 23:09:03;;;;;;;23.60;14.30;;;;;;;6.49;64.36;100592.63;218962;1254;140398;-72